Time;durP1;ratioP1;P1;durP2;ratioP2;P2;SDS_P1;SDS_P2;PMS_P1;PMS_P2;Temp;Humidity;BMP_temperature;BMP_pressure;BME280_temperature;BME280_humidity;BME280_pressure;Samples;Min_cycle;Max_cycle;Signal;HPM_P1;HPM_P2
2021/10/28 00:13:00;;;;;;;12.50;7.77;;;10.60;99.90;;;;;;5037446;28;20442;-78
2021/10/28 00:15:36;;;;;;;16.17;8.63;;;10.60;99.90;;;;;;5036191;28;20976;-78
2021/10/28 00:20:34;;;;;;;15.43;8.93;;;10.60;99.90;;;;;;5037002;28;20422;-79
2021/10/28 00:23:02;;;;;;;17.23;9.37;;;10.50;99.90;;;;;;5035456;28;20176;-78
2021/10/28 00:25:28;;;;;;;14.00;9.00;;;10.50;99.90;;;;;;5035630;28;20603;-79
2021/10/28 00:27:54;;;;;;;14.60;9.10;;;10.50;99.90;;;;;;5035727;28;20488;-78
2021/10/28 00:30:20;;;;;;;15.17;9.20;;;10.50;99.90;;;;;;5035615;28;20462;-79
2021/10/28 00:32:47;;;;;;;12.97;9.47;;;10.50;99.90;;;;;;5035532;28;20427;-79
2021/10/28 00:35:13;;;;;;;14.90;10.20;;;10.50;99.90;;;;;;5035447;28;20443;-79
2021/10/28 00:37:39;;;;;;;14.97;10.00;;;10.50;99.90;;;;;;5035832;28;20462;-79
2021/10/28 00:40:07;;;;;;;17.60;9.60;;;10.50;99.90;;;;;;5035446;28;20450;-79
2021/10/28 00:42:34;;;;;;;14.60;9.30;;;10.50;99.90;;;;;;5035664;28;20422;-79
2021/10/28 00:45:00;;;;;;;17.07;9.70;;;10.50;99.90;;;;;;5035631;28;20477;-79
2021/10/28 00:47:26;;;;;;;12.60;8.77;;;10.50;99.90;;;;;;5035286;28;20427;-79
2021/10/28 00:49:52;;;;;;;14.37;10.00;;;10.50;99.90;;;;;;5034872;28;20419;-79
2021/10/28 00:52:18;;;;;;;11.80;9.50;;;10.50;99.90;;;;;;5035341;28;20458;-78
2021/10/28 00:54:46;;;;;;;16.00;9.53;;;10.40;99.90;;;;;;5034855;28;20439;-79
2021/10/28 00:57:12;;;;;;;15.27;9.90;;;10.40;99.90;;;;;;5034923;28;20455;-78
2021/10/28 00:59:38;;;;;;;13.97;8.67;;;10.40;99.90;;;;;;5035339;28;20507;-79
2021/10/28 01:02:04;;;;;;;16.10;9.70;;;10.40;99.90;;;;;;5034718;28;20471;-79
2021/10/28 01:04:31;;;;;;;16.17;8.50;;;10.40;99.90;;;;;;5034361;28;20177;-79
2021/10/28 01:06:58;;;;;;;19.00;11.80;;;10.40;99.90;;;;;;5034879;28;20524;-79
2021/10/28 01:09:24;;;;;;;14.40;9.40;;;10.30;99.90;;;;;;5035021;28;20423;-78
2021/10/28 01:11:54;;;;;;;15.90;10.20;;;10.40;99.90;;;;;;5034887;28;20502;-79
2021/10/28 01:14:21;;;;;;;19.27;11.47;;;10.40;99.90;;;;;;5034617;28;20544;-78
2021/10/28 01:16:48;;;;;;;20.60;10.40;;;10.40;99.90;;;;;;5034721;28;20466;-79
2021/10/28 01:19:14;;;;;;;16.83;10.03;;;10.40;99.90;;;;;;5034798;28;20436;-79
2021/10/28 01:21:40;;;;;;;20.90;10.17;;;10.40;99.90;;;;;;5035091;28;20502;-78
2021/10/28 01:24:06;;;;;;;16.33;10.03;;;10.40;99.90;;;;;;5035292;28;20443;-79
2021/10/28 01:26:32;;;;;;;17.17;10.10;;;10.40;99.90;;;;;;5034679;28;20252;-79
2021/10/28 01:29:02;;;;;;;14.83;9.87;;;10.40;99.90;;;;;;5034448;28;20526;-78
2021/10/28 01:31:30;;;;;;;18.37;10.40;;;10.30;99.90;;;;;;5034716;28;20271;-78
2021/10/28 01:33:57;;;;;;;15.87;9.03;;;10.30;99.90;;;;;;5035369;28;20435;-78
2021/10/28 01:36:24;;;;;;;20.03;9.80;;;10.30;99.90;;;;;;5035280;28;20443;-79
2021/10/28 01:38:52;;;;;;;20.63;10.93;;;10.30;99.90;;;;;;5035176;28;20517;-79
2021/10/28 01:41:18;;;;;;;23.20;11.67;;;10.20;99.90;;;;;;5034378;28;20423;-79
2021/10/28 01:43:44;;;;;;;18.13;10.53;;;10.20;99.90;;;;;;5034537;28;20437;-78
2021/10/28 01:46:11;;;;;;;23.43;11.43;;;10.10;99.90;;;;;;5034465;28;20447;-79
2021/10/28 01:48:41;;;;;;;18.43;12.53;;;10.10;99.90;;;;;;5034082;28;20831;-78
2021/10/28 01:51:11;;;;;;;19.80;10.70;;;10.10;99.90;;;;;;5034066;28;20427;-79
2021/10/28 01:53:39;;;;;;;22.67;12.20;;;10.20;99.90;;;;;;5034300;28;20449;-79
2021/10/28 01:56:06;;;;;;;21.13;11.97;;;10.20;99.90;;;;;;5033946;28;20505;-79
2021/10/28 01:58:33;;;;;;;19.40;11.53;;;10.20;99.90;;;;;;5034057;28;20470;-79
2021/10/28 02:00:59;;;;;;;17.27;11.50;;;10.30;99.90;;;;;;5034343;28;20475;-79
2021/10/28 02:03:25;;;;;;;19.90;11.90;;;10.30;99.90;;;;;;5033986;28;20969;-79
2021/10/28 02:05:51;;;;;;;22.37;11.37;;;10.20;99.90;;;;;;5034699;28;20938;-79
2021/10/28 02:08:17;;;;;;;17.10;10.80;;;10.30;99.90;;;;;;5034593;28;20581;-79
2021/10/28 02:10:43;;;;;;;17.87;11.20;;;10.30;99.90;;;;;;5034067;28;20914;-79
2021/10/28 02:13:10;;;;;;;21.07;13.77;;;10.30;99.90;;;;;;5034186;28;20453;-79
2021/10/28 02:15:36;;;;;;;20.23;11.23;;;10.30;99.90;;;;;;5034273;28;20447;-78
2021/10/28 02:18:02;;;;;;;17.73;11.10;;;10.30;99.90;;;;;;5034358;28;20475;-78
2021/10/28 02:20:28;;;;;;;19.33;11.03;;;10.30;99.90;;;;;;5034375;28;20442;-78
2021/10/28 02:22:54;;;;;;;21.23;11.50;;;10.30;99.90;;;;;;5033887;28;20188;-79
2021/10/28 02:25:20;;;;;;;17.20;11.20;;;10.30;99.90;;;;;;5052025;23;20914;-85
2021/10/28 02:27:46;;;;;;;17.27;10.20;;;10.20;99.90;;;;;;5030847;28;20184;-85
2021/10/28 02:30:14;;;;;;;22.63;13.67;;;10.20;99.90;;;;;;5032462;28;20206;-85
2021/10/28 02:32:41;;;;;;;19.23;11.73;;;10.10;99.90;;;;;;5032170;28;20411;-85
2021/10/28 02:35:07;;;;;;;22.07;12.67;;;10.10;99.90;;;;;;5030478;28;20500;-85
2021/10/28 02:37:33;;;;;;;23.47;11.57;;;10.00;99.90;;;;;;5032463;28;20564;-84
2021/10/28 02:39:59;;;;;;;24.80;15.13;;;10.00;99.90;;;;;;5030770;28;20463;-85
2021/10/28 02:42:25;;;;;;;20.83;12.93;;;10.00;99.90;;;;;;5030598;28;20669;-85
2021/10/28 02:44:50;;;;;;;24.50;12.60;;;9.90;99.90;;;;;;5030468;28;20292;-85
2021/10/28 02:47:16;;;;;;;20.27;12.50;;;9.90;99.90;;;;;;5032149;28;21003;-85
2021/10/28 02:49:43;;;;;;;20.80;13.10;;;9.90;99.90;;;;;;5030801;28;20278;-85
2021/10/28 02:52:09;;;;;;;21.83;12.50;;;9.90;99.90;;;;;;5030349;28;20180;-85
2021/10/28 02:54:37;;;;;;;20.30;12.90;;;9.90;99.90;;;;;;5029910;28;20422;-84
2021/10/28 02:57:03;;;;;;;29.00;14.30;;;9.90;99.90;;;;;;5030152;28;20462;-85
2021/10/28 02:59:28;;;;;;;27.80;13.93;;;9.90;99.90;;;;;;5029980;28;20418;-83
2021/10/28 03:01:57;;;;;;;25.50;14.27;;;10.00;99.90;;;;;;5029860;28;20180;-84
2021/10/28 03:04:24;;;;;;;31.10;14.87;;;10.10;99.90;;;;;;5032802;28;20179;-84
2021/10/28 03:06:51;;;;;;;28.10;14.83;;;10.20;99.90;;;;;;5033451;28;20427;-84
2021/10/28 03:09:19;;;;;;;29.10;16.27;;;10.30;99.90;;;;;;5033586;28;20428;-84
2021/10/28 03:11:48;;;;;;;27.00;15.10;;;10.30;99.90;;;;;;5033358;28;20502;-85
2021/10/28 03:14:16;;;;;;;27.00;15.97;;;10.40;99.90;;;;;;5033577;28;20430;-84
2021/10/28 03:17:07;;;;;;;24.33;14.20;;;10.50;99.90;;;;;;5033110;28;20435;-85
2021/10/28 03:27:31;;;;;;;35.27;17.37;;;10.60;99.90;;;;;;5034715;28;20472;-84
2021/10/28 03:29:57;;;;;;;36.67;18.33;;;10.60;99.90;;;;;;5032900;28;20423;-84
2021/10/28 03:32:24;;;;;;;30.93;17.20;;;10.60;99.90;;;;;;5032941;28;20427;-85
2021/10/28 03:34:51;;;;;;;27.17;17.13;;;10.70;99.90;;;;;;5032934;28;20437;-85
2021/10/28 03:37:24;;;;;;;27.27;16.80;;;10.70;99.90;;;;;;5032887;28;20834;-83
2021/10/28 03:55:46;;;;;;;27.90;16.80;;;10.70;99.90;;;;;;5034254;28;20480;-84
2021/10/28 04:01:18;;;;;;;32.57;17.43;;;10.80;99.90;;;;;;5033849;28;20460;-84
2021/10/28 04:04:16;;;;;;;33.10;17.80;;;10.70;99.90;;;;;;5032154;28;20573;-85
2021/10/28 04:18:03;;;;;;;36.00;20.43;;;10.70;99.90;;;;;;5033690;28;20546;-83
2021/10/28 04:31:19;;;;;;;28.73;17.90;;;10.70;99.90;;;;;;5033177;28;20446;-84
2021/10/28 04:33:45;;;;;;;35.87;18.20;;;10.70;99.90;;;;;;5031632;28;20450;-85
2021/10/28 04:36:12;;;;;;;29.43;16.77;;;10.70;99.90;;;;;;5032946;28;20718;-84
2021/10/28 04:38:38;;;;;;;34.50;17.70;;;10.70;99.90;;;;;;5033060;28;20462;-84
2021/10/28 04:41:03;;;;;;;34.60;17.80;;;10.70;99.90;;;;;;5032944;28;20460;-84
2021/10/28 04:43:29;;;;;;;31.17;17.50;;;10.80;99.90;;;;;;5032813;28;20414;-84
2021/10/28 04:45:55;;;;;;;33.77;17.10;;;10.80;99.90;;;;;;5032772;28;20194;-84
2021/10/28 04:48:21;;;;;;;29.33;16.83;;;10.80;99.90;;;;;;5031519;28;20428;-83
2021/10/28 04:50:46;;;;;;;27.83;16.10;;;10.80;99.90;;;;;;5031724;28;20422;-83
2021/10/28 04:53:12;;;;;;;27.03;16.07;;;10.80;99.90;;;;;;5031411;28;20675;-85
2021/10/28 04:55:38;;;;;;;28.07;15.17;;;10.80;99.90;;;;;;5031357;28;20223;-83
2021/10/28 04:58:04;;;;;;;26.43;15.50;;;10.90;99.90;;;;;;5031289;28;20219;-84
2021/10/28 05:00:31;;;;;;;26.17;14.60;;;11.00;99.90;;;;;;5031589;28;20602;-84
2021/10/28 05:02:56;;;;;;;26.90;15.23;;;11.00;99.90;;;;;;5032363;28;20403;-85
2021/10/28 05:05:22;;;;;;;24.60;15.10;;;11.00;99.90;;;;;;5032577;28;20519;-84
2021/10/28 05:07:48;;;;;;;29.33;15.00;;;11.10;99.90;;;;;;5032385;28;20180;-84
2021/10/28 05:10:14;;;;;;;24.10;14.53;;;11.10;99.90;;;;;;5031310;28;20778;-84
2021/10/28 05:12:40;;;;;;;24.97;14.27;;;11.10;99.90;;;;;;5032217;28;20659;-84
2021/10/28 05:15:06;;;;;;;21.97;13.20;;;11.10;99.90;;;;;;5030999;28;20438;-84
2021/10/28 05:17:31;;;;;;;20.97;12.90;;;11.10;99.90;;;;;;5032298;28;20458;-84
2021/10/28 05:19:57;;;;;;;21.80;13.73;;;11.00;99.90;;;;;;5030940;28;20628;-84
2021/10/28 05:22:23;;;;;;;21.47;12.90;;;10.90;99.90;;;;;;5030849;28;20208;-84
2021/10/28 05:24:48;;;;;;;26.40;13.93;;;10.90;99.90;;;;;;5034870;28;20527;-86
2021/10/28 05:27:14;;;;;;;23.67;12.77;;;10.80;99.90;;;;;;5034860;28;20655;-86
2021/10/28 05:29:40;;;;;;;30.87;15.70;;;10.80;99.90;;;;;;5034698;28;20590;-85
2021/10/28 05:32:06;;;;;;;26.40;14.43;;;10.60;99.90;;;;;;5034697;28;20582;-86
2021/10/28 05:34:32;;;;;;;28.67;17.20;;;10.60;99.90;;;;;;5034642;28;20526;-84
2021/10/28 05:36:57;;;;;;;26.13;15.77;;;10.50;99.90;;;;;;5034565;28;20509;-86
2021/10/28 05:39:23;;;;;;;30.20;15.30;;;10.50;99.90;;;;;;5035902;28;20196;-86
2021/10/28 05:41:48;;;;;;;28.33;16.27;;;10.50;99.90;;;;;;5033961;28;20272;-84
2021/10/28 05:44:15;;;;;;;27.33;15.73;;;10.50;99.90;;;;;;5034168;28;20183;-84
2021/10/28 05:46:40;;;;;;;27.77;14.33;;;10.50;99.90;;;;;;5031174;28;20207;-84
2021/10/28 05:49:06;;;;;;;30.97;15.87;;;10.50;99.90;;;;;;5030952;28;20435;-85
2021/10/28 05:51:32;;;;;;;28.93;15.97;;;10.50;99.90;;;;;;5030391;28;20187;-84
2021/10/28 05:53:57;;;;;;;25.20;14.63;;;10.40;99.90;;;;;;5030732;28;20660;-84
2021/10/28 05:56:23;;;;;;;28.73;16.37;;;10.50;99.90;;;;;;5030305;28;20226;-85
2021/10/28 05:58:48;;;;;;;28.40;15.10;;;10.50;99.90;;;;;;5030469;28;20210;-84
2021/10/28 06:01:14;;;;;;;26.83;15.10;;;10.50;99.90;;;;;;5031968;28;20191;-85
2021/10/28 06:03:40;;;;;;;29.07;16.97;;;10.60;99.90;;;;;;5034756;28;20213;-86
2021/10/28 06:06:05;;;;;;;28.50;15.93;;;10.60;99.90;;;;;;5037326;28;20204;-86
2021/10/28 06:08:33;;;;;;;28.33;15.70;;;10.70;99.90;;;;;;5036763;28;20187;-86
2021/10/28 06:10:59;;;;;;;29.07;15.33;;;10.70;99.90;;;;;;5035749;28;20681;-86
2021/10/28 06:13:26;;;;;;;29.90;16.80;;;10.80;99.90;;;;;;5036128;28;20423;-86
2021/10/28 06:15:52;;;;;;;28.83;16.20;;;10.80;99.90;;;;;;5036400;28;20196;-86
2021/10/28 06:20:48;;;;;;;27.83;14.70;;;10.90;99.90;;;;;;5036337;28;20176;-85
2021/10/28 06:23:14;;;;;;;25.07;15.90;;;10.90;99.90;;;;;;5034797;28;20219;-86
2021/10/28 06:25:40;;;;;;;29.53;16.80;;;10.90;99.90;;;;;;5034225;28;20805;-85
2021/10/28 06:28:05;;;;;;;32.07;15.30;;;10.90;99.90;;;;;;5034664;28;20423;-86
2021/10/28 06:30:32;;;;;;;29.43;15.40;;;10.80;99.90;;;;;;5034576;28;20187;-85
2021/10/28 06:33:04;;;;;;;29.80;17.53;;;10.70;99.90;;;;;;5033533;28;20241;-85
2021/10/28 06:35:30;;;;;;;30.20;16.47;;;10.70;99.90;;;;;;5034152;28;20439;-85
2021/10/28 06:37:56;;;;;;;32.90;17.33;;;10.70;99.90;;;;;;5036001;28;20558;-87
2021/10/28 06:40:24;;;;;;;32.83;16.57;;;10.70;99.90;;;;;;5037128;28;20205;-84
2021/10/28 06:42:50;;;;;;;33.13;16.80;;;10.60;99.90;;;;;;5037083;28;20411;-84
2021/10/28 06:45:17;;;;;;;35.30;17.73;;;10.60;99.90;;;;;;5037716;28;20427;-86
2021/10/28 06:47:43;;;;;;;37.03;17.63;;;10.70;99.90;;;;;;5036755;28;20510;-85
2021/10/28 06:50:14;;;;;;;32.47;18.37;;;10.70;99.90;;;;;;5037943;28;20829;-86
2021/10/28 06:55:28;;;;;;;34.40;18.10;;;10.70;99.90;;;;;;5038665;28;20445;-86
2021/10/28 07:03:04;;;;;;;31.40;17.30;;;10.70;99.90;;;;;;5037039;28;20414;-85
2021/10/28 07:05:30;;;;;;;35.97;18.97;;;10.70;99.90;;;;;;5035992;28;20438;-85
2021/10/28 07:07:56;;;;;;;32.97;18.57;;;10.60;99.90;;;;;;5035696;28;20538;-84
2021/10/28 07:10:24;;;;;;;33.43;17.00;;;10.70;99.90;;;;;;5035330;28;20725;-84
2021/10/28 07:13:02;;;;;;;29.63;16.80;;;10.80;99.90;;;;;;5035013;28;20248;-84
2021/10/28 07:26:13;;;;;;;28.53;15.50;;;11.10;99.90;;;;;;5036805;28;20462;-84
2021/10/28 07:33:59;;;;;;;25.57;15.03;;;11.00;99.90;;;;;;5035612;28;20937;-85
2021/10/28 07:58:33;;;;;;;27.60;16.80;;;11.10;99.90;;;;;;5035045;28;21078;-84
2021/10/28 08:17:09;;;;;;;23.73;14.43;;;11.30;99.90;;;;;;5033621;28;20394;-84
2021/10/28 08:19:47;;;;;;;17.40;12.27;;;11.30;99.90;;;;;;5031874;28;20415;-83
2021/10/28 08:22:21;;;;;;;23.53;13.60;;;11.40;99.90;;;;;;5032389;28;20407;-90
2021/10/28 08:30:22;;;;;;;21.70;14.30;;;11.60;99.90;;;;;;5033349;28;20814;-87
2021/10/28 08:32:48;;;;;;;20.07;12.50;;;11.60;99.90;;;;;;5032128;28;20415;-85
2021/10/28 08:35:18;;;;;;;22.00;12.60;;;11.80;99.90;;;;;;5031304;28;20438;-86
2021/10/28 08:37:52;;;;;;;17.80;11.50;;;11.90;99.90;;;;;;5032335;28;20208;-86
2021/10/28 08:40:18;;;;;;;21.23;14.23;;;12.00;99.90;;;;;;5033108;28;20412;-84
2021/10/28 08:42:45;;;;;;;18.40;12.33;;;12.00;99.90;;;;;;5031476;28;20922;-87
2021/10/28 08:45:14;;;;;;;19.83;12.00;;;12.10;99.90;;;;;;5031575;28;20458;-86
2021/10/28 08:47:47;;;;;;;19.10;11.10;;;12.20;99.90;;;;;;5031768;28;20426;-86
2021/10/28 08:50:20;;;;;;;19.20;11.80;;;12.20;99.90;;;;;;5031782;28;20450;-86
2021/10/28 08:53:33;;;;;;;19.03;11.77;;;12.20;99.90;;;;;;5031306;28;20415;-86
2021/10/28 08:55:39;;;;;;;22.67;11.70;;;12.30;99.90;;;;;;5027037;28;20836;-86
2021/10/28 09:19:31;;;;;;;17.87;11.47;;;12.40;99.90;;;;;;5032200;28;20413;-86
2021/10/28 09:26:28;;;;;;;14.07;9.13;;;13.00;99.90;;;;;;5022926;28;20478;-86
2021/10/28 09:31:56;;;;;;;14.27;9.00;;;13.10;99.90;;;;;;5020806;28;21123;-85
2021/10/28 09:51:09;;;;;;;13.40;9.13;;;13.80;99.90;;;;;;5036313;28;20450;-86
2021/10/28 09:59:24;;;;;;;13.73;7.93;;;14.10;99.90;;;;;;5037708;28;20394;-87
2021/10/28 10:01:50;;;;;;;13.13;8.37;;;14.20;99.90;;;;;;5034437;28;20407;-87
2021/10/28 10:04:16;;;;;;;14.83;9.20;;;14.20;99.90;;;;;;5034169;28;20789;-86
2021/10/28 10:06:44;;;;;;;13.50;7.97;;;14.30;99.90;;;;;;5033446;28;20434;-87
2021/10/28 10:09:09;;;;;;;10.70;7.30;;;14.30;99.90;;;;;;5032767;28;20631;-86
2021/10/28 10:11:35;;;;;;;13.33;7.53;;;14.40;99.90;;;;;;5031288;28;20403;-84
2021/10/28 10:14:02;;;;;;;10.33;8.70;;;14.50;99.90;;;;;;5032833;28;20250;-86
2021/10/28 10:16:29;;;;;;;11.07;9.00;;;14.60;99.90;;;;;;5035379;28;20199;-83
2021/10/28 10:18:55;;;;;;;13.30;8.43;;;14.70;99.90;;;;;;5034348;28;20487;-81
2021/10/28 10:21:35;;;;;;;12.00;8.63;;;14.90;99.90;;;;;;5035358;28;20457;-82
2021/10/28 12:44:11;;;;;;;10.57;5.87;;;28.10;71.60;;;;;;5033557;28;20395;-88
2021/10/28 12:46:24;;;;;;;8.10;6.37;;;27.60;71.70;;;;;;5022511;28;20454;-87
2021/10/28 12:49:18;;;;;;;8.40;6.30;;;27.60;69.70;;;;;;5032231;28;20469;-88
2021/10/28 13:04:20;;;;;;;9.30;6.80;;;26.60;70.30;;;;;;5013682;28;20438;-86
2021/10/28 13:52:48;;;;;;;12.20;7.30;;;19.10;99.90;;;;;;5039399;28;20419;-80
2021/10/28 14:15:02;;;;;;;10.70;6.10;;;19.00;99.90;;;;;;5033688;28;20454;-80
2021/10/28 14:18:10;;;;;;;11.27;7.10;;;18.70;99.90;;;;;;5038258;28;20804;-81
2021/10/28 14:21:12;;;;;;;13.80;7.63;;;18.60;99.90;;;;;;5038705;28;20424;-81
2021/10/28 14:28:24;;;;;;;7.77;6.50;;;18.50;99.90;;;;;;5038092;28;20917;-81
2021/10/28 14:39:02;;;;;;;9.47;8.03;;;17.90;99.90;;;;;;5039465;28;21012;-80
2021/10/28 15:30:29;;;;;;;11.80;9.57;;;16.00;99.90;;;;;;5041155;28;20439;-82
2021/10/28 15:35:42;;;;;;;13.83;9.20;;;15.90;99.90;;;;;;5041769;28;20446;-82
2021/10/28 15:41:29;;;;;;;12.17;8.80;;;15.70;99.90;;;;;;5011392;28;20419;-82
2021/10/28 16:24:01;;;;;;;13.70;9.63;;;14.40;99.90;;;;;;5039595;28;20426;-83
2021/10/28 16:26:32;;;;;;;13.90;8.77;;;14.30;99.90;;;;;;5038453;28;20957;-82
2021/10/28 16:28:58;;;;;;;14.50;11.10;;;14.30;99.90;;;;;;5042552;28;20454;-81
2021/10/28 16:31:24;;;;;;;15.10;10.83;;;14.10;99.90;;;;;;5039460;28;20427;-81
2021/10/28 16:33:50;;;;;;;18.33;12.20;;;14.00;99.90;;;;;;5040183;28;20926;-80
2021/10/28 16:36:16;;;;;;;16.10;11.10;;;13.90;99.90;;;;;;5040515;28;20819;-83
2021/10/28 16:38:43;;;;;;;14.70;11.03;;;13.90;99.90;;;;;;5041690;28;20467;-82
2021/10/28 16:41:09;;;;;;;14.67;11.60;;;13.80;99.90;;;;;;5039974;28;20180;-81
2021/10/28 16:43:35;;;;;;;16.10;11.50;;;13.70;99.90;;;;;;5038966;28;20447;-82
2021/10/28 16:46:01;;;;;;;14.50;11.10;;;13.70;99.90;;;;;;5039036;28;20204;-81
2021/10/28 16:48:27;;;;;;;16.87;11.50;;;13.60;99.90;;;;;;5037698;28;20429;-79
2021/10/28 16:50:54;;;;;;;14.20;10.30;;;13.60;99.90;;;;;;5038515;28;20212;-79
2021/10/28 16:53:20;;;;;;;17.30;11.60;;;13.50;99.90;;;;;;5038112;28;20188;-79
2021/10/28 16:55:47;;;;;;;15.53;11.10;;;13.40;99.90;;;;;;5037966;28;20941;-80
2021/10/28 16:58:13;;;;;;;15.80;11.07;;;13.40;99.90;;;;;;5037717;28;20985;-81
2021/10/28 17:00:39;;;;;;;16.90;12.30;;;13.30;99.90;;;;;;5037761;28;20423;-80
2021/10/28 17:03:05;;;;;;;15.47;12.10;;;13.30;99.90;;;;;;5037048;28;20427;-79
2021/10/28 17:05:31;;;;;;;15.60;12.67;;;13.20;99.90;;;;;;5036867;28;20446;-80
2021/10/28 17:07:57;;;;;;;15.93;12.20;;;13.10;99.90;;;;;;5036352;28;20198;-79
2021/10/28 17:10:23;;;;;;;17.03;13.03;;;13.10;99.90;;;;;;5036961;28;20465;-81
2021/10/28 17:12:48;;;;;;;17.80;12.17;;;13.00;99.90;;;;;;5037696;28;20176;-80
2021/10/28 17:15:15;;;;;;;17.97;12.30;;;13.00;99.90;;;;;;5036855;28;20594;-81
2021/10/28 17:17:41;;;;;;;17.77;13.87;;;13.00;99.90;;;;;;5036641;28;20215;-81
2021/10/28 17:20:08;;;;;;;18.00;13.30;;;12.90;99.90;;;;;;5037124;28;20423;-81
2021/10/28 17:22:37;;;;;;;19.17;12.40;;;12.90;99.90;;;;;;5036511;28;20424;-81
2021/10/28 17:25:09;;;;;;;17.97;11.83;;;12.80;99.90;;;;;;5036200;28;20442;-80
2021/10/28 17:27:35;;;;;;;18.93;13.27;;;12.80;99.90;;;;;;5036632;28;20427;-81
2021/10/28 17:30:06;;;;;;;18.43;13.20;;;12.70;99.90;;;;;;5036925;28;20425;-80
2021/10/28 17:32:31;;;;;;;24.63;13.53;;;12.70;99.90;;;;;;5036320;28;20435;-80
2021/10/28 17:34:57;;;;;;;17.63;12.57;;;12.70;99.90;;;;;;5036591;28;20489;-80
2021/10/28 17:37:23;;;;;;;16.97;12.27;;;12.70;99.90;;;;;;5037681;28;20278;-80
2021/10/28 17:39:49;;;;;;;19.67;14.13;;;12.60;99.90;;;;;;5037884;28;20176;-80
2021/10/28 17:42:18;;;;;;;19.40;12.23;;;12.60;99.90;;;;;;5036801;28;20480;-79
2021/10/28 17:44:53;;;;;;;18.63;12.87;;;12.50;99.90;;;;;;5036961;28;20591;-80
2021/10/28 17:47:19;;;;;;;18.67;13.50;;;12.40;99.90;;;;;;5036911;28;20403;-80
2021/10/28 17:49:46;;;;;;;17.17;13.40;;;12.30;99.90;;;;;;5036666;28;20415;-80
2021/10/28 17:52:12;;;;;;;19.33;13.70;;;12.30;99.90;;;;;;5035129;28;20419;-80
2021/10/28 17:54:38;;;;;;;19.93;14.27;;;12.20;99.90;;;;;;5035755;28;20435;-81
2021/10/28 17:57:07;;;;;;;20.87;14.00;;;12.20;99.90;;;;;;5034975;28;20416;-80
2021/10/28 17:59:33;;;;;;;23.73;14.97;;;12.10;99.90;;;;;;5034391;28;20208;-79
2021/10/28 18:01:59;;;;;;;20.93;13.37;;;12.00;99.90;;;;;;5034710;28;20861;-80
2021/10/28 18:04:25;;;;;;;22.33;14.50;;;12.00;99.90;;;;;;5033510;28;20430;-80
2021/10/28 18:06:51;;;;;;;22.87;14.20;;;12.00;99.90;;;;;;5034373;28;20423;-80
2021/10/28 18:09:18;;;;;;;26.57;15.83;;;11.90;99.90;;;;;;5034181;28;20443;-80
2021/10/28 18:11:45;;;;;;;20.57;14.03;;;11.90;99.90;;;;;;5034043;28;20419;-82
2021/10/28 18:14:15;;;;;;;22.47;13.87;;;11.80;99.90;;;;;;5032919;28;20518;-82
2021/10/28 18:16:41;;;;;;;19.83;14.40;;;11.80;99.90;;;;;;5032246;28;20423;-81
2021/10/28 18:19:08;;;;;;;22.40;14.17;;;11.70;99.90;;;;;;5031786;28;20459;-80
2021/10/28 18:21:37;;;;;;;21.77;13.63;;;11.70;99.90;;;;;;5031727;28;20785;-81
2021/10/28 18:24:04;;;;;;;20.20;13.73;;;11.70;99.90;;;;;;5032915;28;20447;-81
2021/10/28 18:26:31;;;;;;;18.50;14.53;;;11.80;99.90;;;;;;5032655;28;20432;-81
2021/10/28 18:29:00;;;;;;;21.50;13.60;;;11.70;99.90;;;;;;5032223;28;20458;-82
2021/10/28 18:31:28;;;;;;;21.17;14.30;;;11.70;99.90;;;;;;5032760;28;20458;-82
2021/10/28 18:33:58;;;;;;;20.77;13.90;;;11.60;99.90;;;;;;5034512;28;20427;-82
2021/10/28 18:36:25;;;;;;;18.03;13.27;;;11.60;99.90;;;;;;5036307;28;20443;-81
2021/10/28 18:38:51;;;;;;;19.67;13.33;;;11.50;99.90;;;;;;5035818;28;20975;-82
2021/10/28 18:41:18;;;;;;;19.40;13.93;;;11.50;99.90;;;;;;5035723;28;20454;-82
2021/10/28 18:43:46;;;;;;;27.47;15.87;;;11.40;99.90;;;;;;5039672;28;20451;-81
2021/10/28 18:46:12;;;;;;;25.57;14.97;;;11.40;99.90;;;;;;5039089;28;20443;-84
2021/10/28 18:48:38;;;;;;;22.53;13.87;;;11.40;99.90;;;;;;5040062;28;20494;-83
2021/10/28 18:51:05;;;;;;;24.37;14.97;;;11.40;99.90;;;;;;5041360;28;20441;-83
2021/10/28 18:53:37;;;;;;;20.13;15.50;;;11.40;99.90;;;;;;5041291;28;20185;-82
2021/10/28 18:56:04;;;;;;;24.83;16.30;;;11.30;99.90;;;;;;5041060;28;20855;-85
2021/10/28 18:58:30;;;;;;;23.87;16.37;;;11.30;99.90;;;;;;5038975;28;20879;-83
2021/10/28 19:00:56;;;;;;;21.50;14.37;;;11.30;99.90;;;;;;5040434;28;20419;-82
2021/10/28 19:03:23;;;;;;;25.80;16.50;;;11.20;99.90;;;;;;5039709;28;20506;-80
2021/10/28 19:05:53;;;;;;;21.90;15.43;;;11.20;99.90;;;;;;5041499;28;20431;-81
2021/10/28 19:10:48;;;;;;;23.80;15.50;;;11.20;99.90;;;;;;5055020;23;20483;-81
2021/10/28 19:13:14;;;;;;;23.90;15.43;;;11.20;99.90;;;;;;5034853;28;20415;-81
2021/10/28 19:15:40;;;;;;;26.23;13.33;;;11.10;99.90;;;;;;5035187;28;20465;-81
2021/10/28 19:18:06;;;;;;;23.00;15.40;;;11.10;99.90;;;;;;5036651;28;20207;-81
2021/10/28 19:20:33;;;;;;;25.57;15.93;;;11.10;99.90;;;;;;5034719;28;20196;-80
2021/10/28 19:22:59;;;;;;;24.57;15.00;;;11.10;99.90;;;;;;5050992;28;20917;-81
2021/10/28 19:25:24;;;;;;;28.93;18.00;;;11.00;99.90;;;;;;5036135;28;20421;-81
2021/10/28 19:27:54;;;;;;;26.33;15.40;;;11.00;99.90;;;;;;5036679;28;20188;-81
2021/10/28 19:32:47;;;;;;;25.40;15.43;;;10.90;99.90;;;;;;5036253;28;20462;-81
2021/10/28 19:35:12;;;;;;;24.43;16.23;;;10.90;99.90;;;;;;5036046;28;20407;-81
2021/10/28 19:40:40;;;;;;;25.53;15.97;;;10.90;99.90;;;;;;5016477;28;20211;-80
2021/10/28 19:48:16;;;;;;;25.77;16.20;;;10.80;99.90;;;;;;5036331;28;20787;-80
2021/10/28 19:50:43;;;;;;;22.50;13.70;;;10.70;99.90;;;;;;5035738;28;20434;-81
2021/10/28 19:53:09;;;;;;;24.70;14.63;;;10.70;99.90;;;;;;5035528;28;20449;-80
2021/10/28 19:55:35;;;;;;;24.07;15.80;;;10.70;99.90;;;;;;5035625;28;20422;-80
2021/10/28 19:58:01;;;;;;;24.20;15.00;;;10.60;99.90;;;;;;5035688;28;20200;-80
2021/10/28 20:05:45;;;;;;;26.70;16.73;;;10.60;99.90;;;;;;5035545;28;20226;-80
2021/10/28 20:21:28;;;;;;;23.10;17.00;;;10.40;99.90;;;;;;5034510;28;20430;-79
2021/10/28 20:23:55;;;;;;;25.10;16.10;;;10.40;99.90;;;;;;5034519;28;20502;-79
2021/10/28 20:26:21;;;;;;;24.20;15.80;;;10.30;99.90;;;;;;5033304;28;20952;-79
2021/10/28 20:28:48;;;;;;;22.83;15.40;;;10.40;99.90;;;;;;5034196;28;20445;-79
2021/10/28 20:31:18;;;;;;;24.03;14.97;;;10.30;99.90;;;;;;5034729;28;20537;-79
2021/10/28 20:33:48;;;;;;;24.40;14.60;;;10.30;99.90;;;;;;5032507;28;20801;-80
2021/10/28 20:38:57;;;;;;;25.77;15.90;;;10.30;99.90;;;;;;5034466;28;20468;-79
2021/10/28 20:41:24;;;;;;;23.23;14.70;;;10.20;99.90;;;;;;5034171;28;20396;-79
2021/10/28 20:43:49;;;;;;;31.23;17.00;;;10.20;99.90;;;;;;5033535;28;20446;-79
2021/10/28 20:46:23;;;;;;;27.77;16.27;;;10.20;99.90;;;;;;5036354;28;20438;-79
2021/10/28 20:48:50;;;;;;;24.00;14.37;;;10.20;99.90;;;;;;5035190;28;20200;-80
2021/10/28 20:51:16;;;;;;;24.23;15.60;;;10.10;99.90;;;;;;5034671;28;20496;-80
2021/10/28 20:53:43;;;;;;;28.23;17.27;;;10.10;99.90;;;;;;5034107;28;20434;-81
2021/10/28 20:56:09;;;;;;;23.90;15.23;;;10.10;99.90;;;;;;5051161;28;20279;-80
2021/10/28 20:58:35;;;;;;;28.17;15.80;;;10.00;99.90;;;;;;5034382;28;20474;-79
2021/10/28 21:01:00;;;;;;;27.77;18.60;;;10.00;99.90;;;;;;5035706;28;20410;-80
2021/10/28 21:03:26;;;;;;;27.03;15.10;;;9.90;99.90;;;;;;5033815;28;20449;-79
2021/10/28 21:05:52;;;;;;;23.80;15.30;;;9.90;99.90;;;;;;5035223;28;20179;-80
2021/10/28 21:08:17;;;;;;;29.23;18.87;;;9.90;99.90;;;;;;5033832;28;20180;-79
2021/10/28 21:10:43;;;;;;;28.67;16.27;;;9.90;99.90;;;;;;5033432;28;20532;-79
2021/10/28 21:13:09;;;;;;;27.17;15.87;;;9.80;99.90;;;;;;5033247;28;20183;-79
2021/10/28 21:15:35;;;;;;;23.07;15.20;;;9.80;99.90;;;;;;5033319;28;20689;-79
2021/10/28 21:18:00;;;;;;;28.30;16.47;;;9.80;99.90;;;;;;5033272;28;20203;-79
2021/10/28 21:20:26;;;;;;;25.90;16.93;;;9.70;99.90;;;;;;5031924;28;20585;-80
2021/10/28 21:22:55;;;;;;;26.00;17.63;;;9.70;99.90;;;;;;5031827;28;20176;-79
2021/10/28 21:25:21;;;;;;;28.30;16.10;;;9.70;99.90;;;;;;5033094;28;20925;-79
2021/10/28 21:27:47;;;;;;;26.83;16.17;;;9.70;99.90;;;;;;5048148;28;20414;-79
2021/10/28 21:30:13;;;;;;;29.40;16.20;;;9.70;99.90;;;;;;5033204;28;20437;-79
2021/10/28 21:32:41;;;;;;;24.67;16.10;;;9.70;99.90;;;;;;5032806;28;20403;-79
2021/10/28 21:35:10;;;;;;;24.17;14.77;;;9.70;99.90;;;;;;5033169;28;20779;-79